PDT,Max TemperatureF,Mean TemperatureF,Min TemperatureF,Max Dew PointF,MeanDew PointF,Min DewpointF,Max Humidity, Mean Humidity, Min Humidity, Max Sea Level PressureIn, Mean Sea Level PressureIn, Min Sea Level PressureIn, Max VisibilityMiles, Mean VisibilityMiles, Min VisibilityMiles, Max Wind SpeedMPH, Mean Wind SpeedMPH, Max Gust SpeedMPH,PrecipitationIn, CloudCover, Events, WindDirDegrees
2012-9-1,78,57,36,36,28,13,85,47,9,30.12,30.04,29.96,10,10,10,12,5,17,0.00,0,,204
2012-9-2,81,56,30,39,27,7,70,38,6,30.15,30.10,30.04,10,10,10,14,5,22,0.00,0,,312
2012-9-3,85,60,35,38,33,25,82,49,16,30.11,30.06,29.99,10,10,10,14,5,18,0.00,0,,40
2012-9-4,83,61,38,37,32,25,60,38,15,30.16,30.10,30.04,10,10,10,14,5,18,0.00,0,,300
2012-9-5,88,63,38,42,35,31,62,38,14,30.07,29.98,29.87,10,10,10,18,5,23,0.00,0,,327
2012-9-6,81,60,39,41,38,34,79,50,21,30.14,30.01,29.94,10,10,10,21,7,24,0.00,0,,321
2012-9-7,86,61,36,38,35,30,79,48,16,30.20,30.14,30.07,10,10,10,16,5,20,0.00,0,,306
2012-9-8,89,65,41,40,35,31,62,39,16,30.12,30.01,29.88,10,10,10,16,6,22,0.00,0,,318
2012-9-9,80,60,39,39,31,22,76,44,11,30.00,29.91,29.87,10,10,10,22,6,28,0.00,2,,294
2012-9-10,70,52,34,42,36,29,85,56,27,30.16,30.08,30.01,10,10,10,16,6,24,0.00,0,,311
2012-9-11,68,48,28,35,29,24,92,57,22,30.26,30.21,30.16,10,10,10,17,5,22,0.00,0,,318
2012-9-12,75,50,24,28,23,19,75,44,13,30.35,30.29,30.24,10,10,6,17,6,23,0.00,0,,288
2012-9-13,82,58,33,28,23,19,56,34,12,30.35,30.25,30.14,10,10,10,15,5,20,0.00,0,,244
2012-9-14,90,65,39,51,28,19,45,28,10,30.17,30.09,29.98,10,10,5,14,5,20,0.03,1,Rain-Thunderstorm,279
2012-9-15,83,64,45,54,41,29,86,53,20,30.13,30.08,30.04,10,10,8,16,6,20,0.01,2,,306
2012-9-16,81,59,36,36,32,26,64,39,14,30.22,30.14,30.08,10,9,2,14,5,16,0.00,1,,263
2012-9-17,84,59,34,34,30,26,70,43,16,30.19,30.12,30.05,10,8,2,15,5,20,0.00,0,,274
2012-9-18,89,64,38,33,29,23,59,35,10,30.12,30.07,30.01,10,8,4,14,4,16,0.00,0,,262
2012-9-19,92,67,41,32,29,23,55,32,9,30.16,30.08,30.01,10,8,3,18,5,21,0.00,0,,253
2012-9-20,90,66,41,36,30,23,49,30,11,30.14,30.03,29.94,10,10,6,17,6,23,0.00,0,,287
2012-9-21,85,65,45,45,34,31,58,38,17,30.07,30.00,29.91,10,7,2,18,6,21,0.00,0,,246
2012-9-22,79,59,39,39,31,24,79,46,13,30.08,30.03,29.98,10,10,7,20,5,25,0.00,0,,331
2012-9-23,71,57,43,48,37,26,93,59,24,30.10,30.06,30.03,10,9,3,15,6,21,0.01,3,Rain,309
2012-9-24,77,56,34,41,37,30,82,54,25,30.15,30.07,30.01,10,10,8,12,3,15,0.00,0,,241
2012-9-25,78,58,38,43,32,14,89,50,10,30.07,30.03,29.97,10,10,9,13,4,16,0.00,0,,184
2012-9-26,76,55,33,24,20,14,56,34,12,30.09,30.05,29.99,10,10,10,15,5,18,0.00,0,,250
2012-9-27,78,55,32,30,23,16,47,31,14,30.10,30.03,29.97,10,10,7,14,4,16,0.00,0,,299
2012-9-28,84,67,49,38,30,26,54,35,16,30.04,29.97,29.92,10,10,10,14,3,17,0.00,0,,271
2012-9-29,80,61,41,45,40,35,76,51,26,30.18,30.11,30.04,10,10,10,15,4,20,0.00,0,,119
2012-9-30,80,61,41,45,33,21,86,51,16,30.30,30.25,30.19,10,10,10,15,5,20,0.00,0,,195